Airfield :
LOGIN :

Register | Disclaimer

   EN    FR    IT 

 










Legend :    VFR   Marginal VFR   IFR   Intensive IFR   Very Intensive IFR
Visi :
Ceiling :
>= 8 km
>= 3000ft
5 to 8 km
1000 to 3000 ft
1500m to 5 km
500 to 1000 ft
800 to 1500m
200 to 500 ft
< 800m
< 200 ft
Symbols :   Thunderstorms  Fog  Heavy snow  Heavy precipitations  Wind > 20 kt
SIGMETs :     Misc.  Thunderstorms  Icing  Turbulence  Mountain Waves  Volcanic Ashes






- Airport Elevation : 289 ft


LFYR - Romorantin Pruniers

CURRENT METAR :
  • 060030Z AUTO 22008KT 7000 RA BKN013/// BKN021/// BKN033/// ///TCU 17/16 Q1008

EXPIRED METARs :
  • 060000Z AUTO 23009KT 9999 SCT015 BKN035 OVC066 17/15 Q1008
  • 052330Z AUTO 23010KT 9999 BKN017 BKN030 OVC060 17/15 Q1007
  • 052300Z AUTO 23008KT 200V260 9999 OVC014 17/15 Q1007
  • 052230Z AUTO 23007KT 9999 OVC014 17/16 Q1007
  • 052200Z AUTO 22007KT 190V260 9999 BKN013 BKN019 OVC025 17/16 Q1007

TAF TAF LFYR
Valid from the 05 at 15:00 until the 06 at 15:00 UTC


051400Z 0515/0615 22010KT 9999 SCT030 BKN045
PROB40
TEMPO 0515/0518 -SHRA BKN030TCU
TEMPO 0518/0604 24015G25KT 3000 RA BKN013 BKN020
PROB40
TEMPO 0611/0615 30010G20KT -SHRA BKN030



MET'MAP, your aeronautical weather chart ! - Copyright ORBIFLY December 2007 - Disclaimer

ORBIFLY MET'MAP TEAM :

Programming & Development : Alexandra Zaïnal
Concept & original design : Baudouin d'Aumeries
Assistance for programming : Marc-Olivier Méhu
Technical & hardware support : Manuel Goepfert

Contact : metmap@orbifly.com




SOURCES & CREDITS :

   NOAA